Leviticus — WDC2712 — position and weather

sailwx.info

Track history (hours):
 
Tides and Currents Weather Stations Pressure Air Temp Water Temp Dewpoint Dewpoint Depression Visibility Wind Speed Wind Dir Waves Ship Positions

Leviticus

Owner: Kirby Inland Marine, LP, Houston, TX. More information available from US FCC via Universal Licensing System and Coast Guard Vessel Documentation Center.

Last reported at 2016-Jun-28 22:13 UTC. Time now 2016-Jun-30 14:06 UTC.
Position N 32°06' W 091°06'.

Length 12 m.

Type: Other ship. MMSI: 366996690.

Date/timePositionNaut miles runAvg speedWind from/ knotsBaromVisibWave heightAir tempDewpointWater temp
2016-Jun-28 22:13N 32°06' W 091°06'4 5.3
2016-Jun-28 21:24N 32°07' W 091°01'7 8.2
2016-Jun-28 20:33N 32°14' W 090°59'5 5.2
2016-Jun-28 19:33N 32°18' W 090°55'0 0.0
2016-Jun-28 18:33N 32°18' W 090°55'0 0.4
2016-Jun-28 17:33N 32°18' W 090°55'5 5.4
2016-Jun-28 16:33N 32°21' W 090°60'7 6.7
2016-Jun-28 15:33N 32°27' W 091°05'7 7.4
2016-Jun-28 14:33N 32°34' W 091°07'  
2016-Jun-19 11:08N 32°36' W 091°08'6 3.8
2016-Jun-19 09:31N 32°30' W 091°07'4 4.3
2016-Jun-19 08:34N 32°27' W 091°04'4 4.0
2016-Jun-19 07:33N 32°25' W 090°60'3 3.5
2016-Jun-19 06:34N 32°21' W 090°59'4 4.3
2016-Jun-19 05:33N 32°20' W 090°54'2 2.4
2016-Jun-19 04:33N 32°18' W 090°55'0 0.0
2016-Jun-19 03:34N 32°18' W 090°55'3 2.6
2016-Jun-19 02:34N 32°16' W 090°57'4 3.8
2016-Jun-19 01:33N 32°13' W 090°59'4 4.2
2016-Jun-19 00:34N 32°09' W 091°00'3 3.4
2016-Jun-18 23:32N 32°08' W 091°04'  
Track history (hours):
 
Tides and Currents Weather Stations Pressure Air Temp Water Temp Dewpoint Dewpoint Depression Visibility Wind Speed Wind Dir Waves Ship Positions

Leviticus

Owner: Kirby Inland Marine, LP, Houston, TX. More information available from US FCC via Universal Licensing System and Coast Guard Vessel Documentation Center.

Last reported at 2016-Jun-28 22:13 UTC. Time now 2016-Jun-30 14:06 UTC.
Position N 32°06' W 091°06'.

Length 12 m.

Type: Other ship. MMSI: 366996690.

Date/timePositionNaut miles runAvg speedWind from/ knotsBaromVisibWave heightAir tempDewpointWater temp
2016-Jun-28 22:13N 32°06' W 091°06'4 5.3
2016-Jun-28 21:24N 32°07' W 091°01'7 8.2
2016-Jun-28 20:33N 32°14' W 090°59'5 5.2
2016-Jun-28 19:33N 32°18' W 090°55'0 0.0
2016-Jun-28 18:33N 32°18' W 090°55'0 0.4
2016-Jun-28 17:33N 32°18' W 090°55'5 5.4
2016-Jun-28 16:33N 32°21' W 090°60'7 6.7
2016-Jun-28 15:33N 32°27' W 091°05'7 7.4
2016-Jun-28 14:33N 32°34' W 091°07'  
2016-Jun-19 11:08N 32°36' W 091°08'6 3.8
2016-Jun-19 09:31N 32°30' W 091°07'4 4.3
2016-Jun-19 08:34N 32°27' W 091°04'4 4.0
2016-Jun-19 07:33N 32°25' W 090°60'3 3.5
2016-Jun-19 06:34N 32°21' W 090°59'4 4.3
2016-Jun-19 05:33N 32°20' W 090°54'2 2.4
2016-Jun-19 04:33N 32°18' W 090°55'0 0.0
2016-Jun-19 03:34N 32°18' W 090°55'3 2.6
2016-Jun-19 02:34N 32°16' W 090°57'4 3.8
2016-Jun-19 01:33N 32°13' W 090°59'4 4.2
2016-Jun-19 00:34N 32°09' W 091°00'3 3.4
2016-Jun-18 23:32N 32°08' W 091°04'  

Dump ship's entire track history